createdAt,value
2018-12-09T00:01:14.163Z,1.30
2018-12-09T00:03:41.674Z,2.17
2018-12-09T00:06:09.459Z,0.97
2018-12-09T00:08:37.001Z,1.43
2018-12-09T00:11:04.659Z,1.17
2018-12-09T00:13:32.182Z,1.70
2018-12-09T00:15:59.898Z,1.03
2018-12-09T00:18:27.520Z,1.67
2018-12-09T00:20:55.015Z,1.93
2018-12-09T00:23:22.502Z,2.50
2018-12-09T00:25:50.000Z,2.13
2018-12-09T00:28:17.643Z,3.33
2018-12-09T00:30:45.201Z,4.23
2018-12-09T00:33:12.780Z,3.60
2018-12-09T00:35:40.324Z,3.00
2018-12-09T00:38:07.931Z,3.00
2018-12-09T00:40:35.498Z,1.70
2018-12-09T00:43:03.111Z,5.03
2018-12-09T00:45:31.199Z,2.27
2018-12-09T00:47:58.831Z,2.83
2018-12-09T00:50:26.366Z,3.20
2018-12-09T00:52:55.502Z,2.70
2018-12-09T00:55:23.054Z,1.90
2018-12-09T00:57:51.252Z,2.10
2018-12-09T01:00:18.954Z,1.73
2018-12-09T01:02:46.509Z,2.23
2018-12-09T01:05:14.145Z,1.20
2018-12-09T01:07:41.838Z,1.30
2018-12-09T01:10:09.380Z,1.43
2018-12-09T01:12:37.865Z,1.87
2018-12-09T01:15:05.645Z,2.10
2018-12-09T01:17:33.843Z,1.57
2018-12-09T01:20:01.331Z,2.97
2018-12-09T01:22:29.548Z,3.70
2018-12-09T01:24:57.137Z,5.43
2018-12-09T01:27:25.094Z,3.63
2018-12-09T01:29:54.349Z,3.03
2018-12-09T01:32:22.692Z,4.60
2018-12-09T01:34:50.218Z,3.97
2018-12-09T01:37:18.481Z,2.53
2018-12-09T01:39:46.017Z,3.57
2018-12-09T01:42:13.678Z,5.80
2018-12-09T01:44:41.177Z,1.50
2018-12-09T01:47:08.700Z,5.40
2018-12-09T01:49:36.286Z,3.73
2018-12-09T01:52:04.360Z,4.23
2018-12-09T01:54:31.882Z,3.77
2018-12-09T01:56:59.376Z,4.53
2018-12-09T01:59:26.928Z,4.17
2018-12-09T02:01:54.564Z,6.63
2018-12-09T02:04:22.343Z,3.53
2018-12-09T02:06:49.891Z,5.23
2018-12-09T02:09:17.376Z,5.50
2018-12-09T02:11:44.963Z,7.20
2018-12-09T02:14:13.096Z,4.90
2018-12-09T02:16:40.894Z,4.23
2018-12-09T02:19:16.548Z,4.13
2018-12-09T02:21:44.559Z,3.83
2018-12-09T02:24:12.544Z,3.67
2018-12-09T02:26:42.760Z,5.37
2018-12-09T02:29:10.373Z,5.37
2018-12-09T02:31:37.890Z,6.53
2018-12-09T02:34:05.441Z,7.27
2018-12-09T02:36:33.850Z,3.93
2018-12-09T02:39:01.482Z,4.63
2018-12-09T02:41:29.941Z,4.33
2018-12-09T02:43:57.438Z,4.10
2018-12-09T02:46:26.461Z,2.20
2018-12-09T02:48:54.059Z,3.57
2018-12-09T02:51:21.746Z,3.23
2018-12-09T02:53:49.461Z,3.30
2018-12-09T02:56:17.016Z,5.93
2018-12-09T02:58:44.607Z,3.17
2018-12-09T03:01:12.189Z,1.73
2018-12-09T03:03:39.791Z,2.97
2018-12-09T03:06:07.294Z,3.90
2018-12-09T03:08:34.820Z,2.20
2018-12-09T03:11:02.901Z,2.67
2018-12-09T03:13:30.574Z,2.27
2018-12-09T03:15:58.722Z,3.80
2018-12-09T03:18:26.274Z,2.73
2018-12-09T03:20:53.867Z,2.83
2018-12-09T03:23:21.880Z,2.43
2018-12-09T03:25:49.448Z,3.30
2018-12-09T03:28:17.287Z,2.80
2018-12-09T03:30:45.232Z,4.93
2018-12-09T03:33:12.889Z,1.70
2018-12-09T03:35:40.608Z,3.27
2018-12-09T03:38:08.519Z,2.17
2018-12-09T03:40:36.497Z,1.90
2018-12-09T03:43:04.040Z,2.07
2018-12-09T03:45:31.699Z,2.77
2018-12-09T03:47:59.195Z,2.47
2018-12-09T03:50:26.938Z,1.80
2018-12-09T03:52:54.577Z,3.53
2018-12-09T03:55:22.173Z,3.60
2018-12-09T03:57:49.993Z,3.33
2018-12-09T04:00:18.207Z,4.37
2018-12-09T04:02:46.280Z,4.47
2018-12-09T04:05:13.919Z,4.37
2018-12-09T04:07:41.513Z,4.30
2018-12-09T04:10:09.635Z,5.47
2018-12-09T04:12:38.238Z,8.10
2018-12-09T04:15:06.927Z,7.23
2018-12-09T04:17:34.548Z,5.03
2018-12-09T04:20:02.022Z,3.87
2018-12-09T04:22:29.718Z,4.80
2018-12-09T04:24:57.872Z,8.47
2018-12-09T04:27:26.646Z,4.53
2018-12-09T04:29:54.167Z,4.27
2018-12-09T04:32:21.681Z,4.47
2018-12-09T04:34:50.827Z,5.83
2018-12-09T04:37:19.269Z,4.83
2018-12-09T04:39:46.868Z,4.70
2018-12-09T04:42:14.387Z,5.37
2018-12-09T04:44:42.514Z,6.73
2018-12-09T04:47:10.416Z,6.33
2018-12-09T04:49:37.947Z,7.63
2018-12-09T04:52:05.471Z,6.60
2018-12-09T04:54:33.007Z,7.47
2018-12-09T04:57:00.627Z,10.77
2018-12-09T04:59:31.407Z,6.87
2018-12-09T05:01:59.028Z,7.23
2018-12-09T05:04:26.560Z,8.33
2018-12-09T05:06:54.270Z,9.40
2018-12-09T05:09:21.749Z,6.07
2018-12-09T05:11:49.680Z,10.47
2018-12-09T05:14:17.202Z,8.57
2018-12-09T05:16:44.686Z,9.37
2018-12-09T05:19:12.282Z,9.33
2018-12-09T05:21:39.809Z,8.73
2018-12-09T05:24:07.783Z,5.60
2018-12-09T05:26:36.237Z,9.23
2018-12-09T05:29:03.804Z,12.93
2018-12-09T05:31:31.396Z,7.90
2018-12-09T05:33:58.914Z,9.63
2018-12-09T05:36:27.681Z,8.60
2018-12-09T05:38:55.896Z,8.03
2018-12-09T05:41:23.399Z,6.90
2018-12-09T05:43:50.927Z,8.63
2018-12-09T05:46:18.856Z,7.93
2018-12-09T05:48:46.858Z,8.33
2018-12-09T05:51:15.263Z,10.23
2018-12-09T05:53:42.792Z,8.73
2018-12-09T05:56:10.323Z,9.20
2018-12-09T05:58:37.848Z,10.07
2018-12-09T06:01:06.491Z,8.13
2018-12-09T06:03:34.052Z,6.17
2018-12-09T06:06:01.630Z,10.37
2018-12-09T06:08:29.810Z,8.00
2018-12-09T06:10:57.394Z,6.57
2018-12-09T06:13:25.554Z,7.87
2018-12-09T06:15:54.293Z,6.37
2018-12-09T06:18:21.836Z,4.90
2018-12-09T06:20:49.330Z,6.33
2018-12-09T06:23:18.444Z,5.83
2018-12-09T06:25:46.353Z,2.97
2018-12-09T06:28:14.195Z,4.50
2018-12-09T06:30:41.817Z,4.40
2018-12-09T06:33:09.324Z,2.73
2018-12-09T06:35:37.783Z,2.07
2018-12-09T06:38:05.644Z,3.53
2018-12-09T06:40:34.076Z,1.53
2018-12-09T06:43:01.602Z,2.00
2018-12-09T06:45:29.084Z,1.47
2018-12-09T06:47:56.615Z,1.00
2018-12-09T06:50:24.464Z,0.83
2018-12-09T06:52:51.987Z,0.70
2018-12-09T06:55:20.419Z,1.10
2018-12-09T06:57:47.920Z,1.43
2018-12-09T07:00:15.654Z,1.33
2018-12-09T07:02:44.080Z,1.63
2018-12-09T07:05:11.841Z,1.10
2018-12-09T07:07:39.402Z,0.70
2018-12-09T07:10:07.509Z,0.83
2018-12-09T07:12:35.091Z,1.30
2018-12-09T07:15:02.653Z,2.03
2018-12-09T07:17:30.382Z,1.40
2018-12-09T07:19:59.298Z,1.17
2018-12-09T07:22:27.093Z,0.60
2018-12-09T07:24:54.679Z,0.40
2018-12-09T07:27:22.199Z,0.37
2018-12-09T07:29:50.103Z,0.43
2018-12-09T07:32:17.671Z,1.23
2018-12-09T07:34:45.179Z,1.83
2018-12-09T07:37:12.709Z,1.80
2018-12-09T07:39:40.235Z,0.57
2018-12-09T07:42:07.796Z,0.57
2018-12-09T07:44:35.312Z,0.57
2018-12-09T07:47:02.896Z,0.50
2018-12-09T07:49:30.389Z,1.00
2018-12-09T07:51:57.921Z,1.53
2018-12-09T07:54:25.449Z,1.17
2018-12-09T07:56:53.886Z,0.50
2018-12-09T07:59:21.435Z,0.50
2018-12-09T08:01:48.927Z,1.03
2018-12-09T08:04:16.978Z,0.30
2018-12-09T08:06:44.460Z,0.93
2018-12-09T08:09:11.993Z,0.70
2018-12-09T08:11:40.342Z,0.80
2018-12-09T08:14:08.123Z,0.57
2018-12-09T08:16:36.345Z,0.83
2018-12-09T08:19:04.566Z,1.00
2018-12-09T08:21:32.129Z,1.03
2018-12-09T08:24:01.386Z,1.60
2018-12-09T08:26:29.037Z,1.07
2018-12-09T08:28:56.613Z,1.20
2018-12-09T08:31:24.942Z,0.87
2018-12-09T08:33:52.847Z,1.20
2018-12-09T08:36:20.350Z,0.87
2018-12-09T08:38:48.786Z,0.90
2018-12-09T08:41:16.334Z,0.50
2018-12-09T08:43:43.836Z,0.80
2018-12-09T08:46:11.430Z,1.30
2018-12-09T08:48:38.958Z,0.77
2018-12-09T08:51:06.548Z,1.23
2018-12-09T08:53:34.165Z,0.70
2018-12-09T08:56:01.741Z,0.50
2018-12-09T08:58:29.236Z,0.27
2018-12-09T09:00:57.203Z,0.70
2018-12-09T09:03:24.769Z,0.40
2018-12-09T09:05:52.312Z,0.60
2018-12-09T09:08:19.880Z,1.20
2018-12-09T09:10:47.420Z,0.87
2018-12-09T09:13:14.984Z,1.07
2018-12-09T09:15:42.699Z,0.43
2018-12-09T09:18:10.938Z,0.33
2018-12-09T09:20:38.455Z,0.60
2018-12-09T09:23:05.994Z,0.53
2018-12-09T09:25:33.497Z,0.53
2018-12-09T09:28:01.044Z,1.13
2018-12-09T09:30:28.526Z,0.60
2018-12-09T09:32:56.011Z,5.17
2018-12-09T09:35:23.658Z,2.00
2018-12-09T09:37:51.211Z,1.77
2018-12-09T09:40:18.776Z,1.20
2018-12-09T09:42:46.295Z,1.23
2018-12-09T09:45:13.919Z,1.03
2018-12-09T09:47:41.579Z,0.80
2018-12-09T09:50:09.109Z,0.47
2018-12-09T09:52:36.641Z,1.13
2018-12-09T09:55:04.721Z,0.80
2018-12-09T09:57:32.280Z,1.13
2018-12-09T09:59:59.876Z,0.97
2018-12-09T10:02:27.469Z,0.97
2018-12-09T10:04:54.999Z,1.50
2018-12-09T10:07:22.489Z,1.90
2018-12-09T10:09:50.562Z,1.67
2018-12-09T10:12:18.412Z,0.60
2018-12-09T10:14:46.068Z,0.77
2018-12-09T10:17:13.613Z,0.60
2018-12-09T10:19:41.142Z,0.80
2018-12-09T10:22:08.691Z,0.80
2018-12-09T10:24:36.226Z,0.83
2018-12-09T10:27:03.767Z,0.90
2018-12-09T10:29:31.430Z,1.43
2018-12-09T10:31:58.896Z,3.73
2018-12-09T10:34:26.404Z,1.87
2018-12-09T10:36:54.018Z,1.00
2018-12-09T10:39:21.921Z,1.80
2018-12-09T10:41:49.432Z,1.83
2018-12-09T10:44:16.938Z,1.93
2018-12-09T10:46:44.516Z,2.60
2018-12-09T10:49:13.615Z,2.13
2018-12-09T10:51:41.254Z,2.67
2018-12-09T10:54:08.922Z,2.23
2018-12-09T10:56:36.547Z,2.60
2018-12-09T10:59:04.221Z,2.13
2018-12-09T11:01:46.579Z,2.80
2018-12-09T11:04:14.522Z,4.13
2018-12-09T11:06:42.302Z,2.13
2018-12-09T11:09:09.869Z,4.07
2018-12-09T11:11:37.464Z,3.57
2018-12-09T11:14:05.029Z,3.33
2018-12-09T11:16:32.592Z,4.97
2018-12-09T11:19:00.364Z,3.77
2018-12-09T11:21:30.780Z,2.03
2018-12-09T11:23:58.028Z,3.87
2018-12-09T11:26:26.460Z,4.57
2018-12-09T11:28:55.100Z,2.27
2018-12-09T11:31:22.619Z,3.73
2018-12-09T11:33:50.267Z,5.47
2018-12-09T11:36:17.807Z,3.33
2018-12-09T11:38:45.327Z,3.63
2018-12-09T11:41:12.884Z,3.83
2018-12-09T11:43:40.411Z,5.40
2018-12-09T11:46:07.958Z,3.80
2018-12-09T11:48:35.464Z,2.83
2018-12-09T11:51:03.059Z,4.83
2018-12-09T11:53:30.707Z,4.40
2018-12-09T11:55:58.250Z,5.03
2018-12-09T11:58:25.894Z,7.97
2018-12-09T12:00:53.467Z,4.67
2018-12-09T12:03:20.945Z,4.37
2018-12-09T12:05:48.480Z,6.37
2018-12-09T12:08:16.054Z,5.30
2018-12-09T12:10:45.011Z,5.30
2018-12-09T12:13:13.002Z,4.90
2018-12-09T12:15:42.718Z,5.97
2018-12-09T12:18:10.900Z,5.13
2018-12-09T12:20:38.377Z,3.73
2018-12-09T12:23:05.961Z,6.30
2018-12-09T12:25:33.493Z,4.97
2018-12-09T12:28:02.010Z,5.00
2018-12-09T12:30:29.558Z,5.97
2018-12-09T12:32:57.095Z,5.47
2018-12-09T12:35:24.607Z,4.47
2018-12-09T12:37:53.076Z,4.70
2018-12-09T12:40:20.555Z,5.33
2018-12-09T12:42:48.070Z,4.77
2018-12-09T12:45:16.106Z,4.90
2018-12-09T12:47:43.658Z,5.87
2018-12-09T12:50:12.079Z,5.07
2018-12-09T12:52:39.728Z,6.53
2018-12-09T12:55:09.301Z,6.97
2018-12-09T12:57:38.722Z,7.60
2018-12-09T13:00:13.403Z,4.50
2018-12-09T13:02:40.906Z,8.23
2018-12-09T13:05:09.111Z,5.70
2018-12-09T13:07:36.767Z,7.43
2018-12-09T13:10:05.995Z,5.57
2018-12-09T13:12:33.501Z,6.30
2018-12-09T13:15:01.936Z,7.33
2018-12-09T13:17:29.432Z,5.57
2018-12-09T13:19:57.002Z,4.70
2018-12-09T13:22:24.725Z,4.13
2018-12-09T13:24:52.276Z,5.23
2018-12-09T13:27:19.832Z,5.17
2018-12-09T13:29:47.740Z,6.47
2018-12-09T13:32:15.211Z,6.73
2018-12-09T13:34:44.295Z,9.03
2018-12-09T13:37:11.831Z,7.33
2018-12-09T13:39:39.394Z,4.73
2018-12-09T13:42:08.447Z,8.43
2018-12-09T13:44:36.011Z,8.27
2018-12-09T13:47:04.507Z,10.87
2018-12-09T13:49:32.013Z,4.57
2018-12-09T13:52:01.207Z,6.30
2018-12-09T13:54:28.765Z,4.63
2018-12-09T13:56:56.382Z,4.23
2018-12-09T13:59:24.767Z,4.93
2018-12-09T14:01:53.299Z,4.80
2018-12-09T14:04:21.037Z,6.23
2018-12-09T14:06:52.296Z,5.00
2018-12-09T14:09:19.912Z,5.07
2018-12-09T14:11:47.619Z,3.93
2018-12-09T14:14:15.131Z,3.83
2018-12-09T14:16:43.683Z,4.90
2018-12-09T14:19:11.203Z,6.07
2018-12-09T14:21:38.869Z,3.87
2018-12-09T14:24:06.464Z,3.67
2018-12-09T14:26:35.060Z,13.63
2018-12-09T14:29:02.654Z,17.47
2018-12-09T14:31:32.140Z,12.90
2018-12-09T14:34:01.900Z,8.73
2018-12-09T14:36:29.563Z,4.53
2018-12-09T14:38:57.236Z,7.57
2018-12-09T14:41:26.739Z,6.53
2018-12-09T14:43:55.064Z,7.63
2018-12-09T14:46:22.698Z,5.60
2018-12-09T14:48:50.336Z,8.10
2018-12-09T14:51:17.940Z,5.97
2018-12-09T14:53:45.481Z,7.03
2018-12-09T14:56:13.977Z,5.53
2018-12-09T14:58:42.924Z,10.37
2018-12-09T15:01:11.162Z,5.87
2018-12-09T15:03:38.756Z,5.80
2018-12-09T15:06:06.351Z,6.93
2018-12-09T15:08:33.910Z,5.33
2018-12-09T15:11:01.668Z,3.60
2018-12-09T15:13:29.500Z,5.00
2018-12-09T15:15:57.223Z,4.47
2018-12-09T15:18:25.138Z,3.43
2018-12-09T15:20:52.676Z,4.80
2018-12-09T15:23:23.378Z,4.73
2018-12-09T15:25:51.136Z,5.33
2018-12-09T15:28:18.732Z,3.77
2018-12-09T15:30:47.505Z,3.77
2018-12-09T15:33:15.070Z,2.37
2018-12-09T15:35:42.769Z,4.63
2018-12-09T15:38:11.256Z,4.37
2018-12-09T15:40:46.466Z,5.07
2018-12-09T15:43:18.620Z,4.77
2018-12-09T15:45:46.241Z,5.50
2018-12-09T15:48:15.325Z,3.87
2018-12-09T15:50:43.007Z,6.47
2018-12-09T15:53:10.587Z,4.37
2018-12-09T15:55:39.061Z,3.93
2018-12-09T15:58:06.667Z,8.37
2018-12-09T16:00:35.409Z,7.22
2018-12-09T16:03:03.043Z,5.63
2018-12-09T16:05:30.587Z,5.87
2018-12-09T16:07:58.862Z,5.07
2018-12-09T16:10:26.367Z,6.13
2018-12-09T16:12:54.187Z,5.70
2018-12-09T16:15:22.746Z,5.67
2018-12-09T16:17:50.237Z,6.13
2018-12-09T16:20:17.814Z,7.57
2018-12-09T16:22:45.353Z,5.67
2018-12-09T16:25:13.341Z,5.77
2018-12-09T16:27:42.132Z,5.20
2018-12-09T16:30:09.647Z,5.90
2018-12-09T16:32:38.727Z,5.90
2018-12-09T16:35:07.821Z,8.20
2018-12-09T16:37:36.320Z,5.57
2018-12-09T16:40:04.639Z,6.93
2018-12-09T16:42:32.189Z,8.67
2018-12-09T16:44:59.814Z,7.97
2018-12-09T16:47:27.318Z,7.70
2018-12-09T16:49:54.925Z,7.93
2018-12-09T16:52:25.470Z,8.83
2018-12-09T16:54:53.017Z,8.50
2018-12-09T16:57:21.486Z,10.70
2018-12-09T16:59:50.880Z,10.40
2018-12-09T17:02:19.181Z,12.20
2018-12-09T17:04:46.761Z,11.10
2018-12-09T17:07:14.538Z,8.90
2018-12-09T17:09:42.141Z,11.53
2018-12-09T17:12:10.047Z,7.57
2018-12-09T17:14:39.523Z,10.47
2018-12-09T17:17:08.832Z,9.97
2018-12-09T17:19:37.791Z,14.73
2018-12-09T17:22:06.406Z,11.13
2018-12-09T17:24:33.968Z,10.87
2018-12-09T17:27:02.453Z,7.30
2018-12-09T17:29:30.124Z,9.57
2018-12-09T17:31:58.845Z,9.80
2018-12-09T17:34:26.381Z,7.20
2018-12-09T17:36:54.148Z,11.10
2018-12-09T17:39:21.718Z,11.27
2018-12-09T17:41:49.328Z,10.30
2018-12-09T17:44:16.844Z,7.87
2018-12-09T17:46:44.400Z,10.27
2018-12-09T17:49:12.644Z,8.43
2018-12-09T17:51:40.279Z,12.37
2018-12-09T17:54:09.938Z,7.93
2018-12-09T17:56:37.497Z,6.67
2018-12-09T17:59:05.871Z,10.23
2018-12-09T18:01:33.657Z,8.53
2018-12-09T18:04:01.634Z,9.63
2018-12-09T18:06:29.230Z,12.93
2018-12-09T18:08:56.837Z,10.20
2018-12-09T18:11:24.624Z,12.13
2018-12-09T18:13:53.714Z,11.13
2018-12-09T18:16:22.123Z,7.97
2018-12-09T18:18:49.738Z,12.13
2018-12-09T18:21:17.341Z,15.20
2018-12-09T18:23:44.906Z,12.00
2018-12-09T18:26:12.517Z,9.70
2018-12-09T18:28:40.125Z,13.60
2018-12-09T18:31:08.090Z,12.83
2018-12-09T18:33:35.864Z,10.80
2018-12-09T18:36:04.261Z,11.10
2018-12-09T18:38:31.875Z,10.77
2018-12-09T18:40:59.822Z,13.87
2018-12-09T18:43:28.261Z,14.03
2018-12-09T18:45:57.455Z,11.30
2018-12-09T18:48:25.032Z,9.53
2018-12-09T18:50:53.502Z,11.60
2018-12-09T18:53:21.098Z,10.43
2018-12-09T18:55:48.759Z,14.57
2018-12-09T18:58:16.276Z,13.77
2018-12-09T19:00:43.782Z,11.03
2018-12-09T19:03:11.600Z,10.83
2018-12-09T19:05:39.231Z,11.23
2018-12-09T19:08:06.920Z,11.03
2018-12-09T19:10:34.985Z,11.83
2018-12-09T19:13:02.670Z,10.90
2018-12-09T19:15:31.075Z,10.80
2018-12-09T19:17:58.604Z,9.30
2018-12-09T19:20:26.123Z,7.90
2018-12-09T19:22:53.745Z,13.53
2018-12-09T19:25:23.221Z,9.43
2018-12-09T19:27:51.385Z,11.93
2018-12-09T19:30:19.349Z,9.50
2018-12-09T19:32:47.526Z,11.27
2018-12-09T19:35:15.132Z,12.43
2018-12-09T19:37:42.662Z,10.73
2018-12-09T19:40:10.272Z,12.87
2018-12-09T19:42:37.771Z,12.53
2018-12-09T19:45:05.551Z,13.63
2018-12-09T19:47:33.215Z,11.33
2018-12-09T19:50:00.811Z,9.77
2018-12-09T19:52:28.436Z,14.07
2018-12-09T19:54:55.941Z,10.37
2018-12-09T19:57:23.544Z,13.70
2018-12-09T19:59:51.080Z,10.80
2018-12-09T20:02:18.681Z,11.43
2018-12-09T20:04:47.023Z,14.30
2018-12-09T20:07:14.712Z,13.40
2018-12-09T20:09:42.239Z,10.17
2018-12-09T20:12:09.806Z,15.10
2018-12-09T20:14:37.359Z,10.97
2018-12-09T20:17:05.106Z,15.80
2018-12-09T20:19:33.313Z,14.20
2018-12-09T20:22:00.854Z,11.23
2018-12-09T20:24:28.445Z,12.93
2018-12-09T20:26:56.041Z,17.27
2018-12-09T20:29:23.556Z,14.90
2018-12-09T20:31:51.147Z,15.13
2018-12-09T20:34:19.280Z,11.97
2018-12-09T20:36:47.131Z,10.63
2018-12-09T20:39:14.813Z,9.47
2018-12-09T20:41:42.851Z,6.07
2018-12-09T20:44:10.369Z,12.23
2018-12-09T20:46:38.713Z,13.80
2018-12-09T20:49:06.344Z,12.70
2018-12-09T20:51:36.066Z,13.50
2018-12-09T20:54:04.575Z,8.33
2018-12-09T20:56:32.176Z,10.27
2018-12-09T20:58:59.713Z,12.57
2018-12-09T21:01:28.461Z,11.63
2018-12-09T21:03:56.086Z,9.63
2018-12-09T21:06:23.616Z,7.03
2018-12-09T21:08:51.147Z,11.53
2018-12-09T21:11:18.748Z,9.33
2018-12-09T21:13:46.641Z,10.47
2018-12-09T21:16:14.198Z,11.93
2018-12-09T21:18:41.756Z,18.10
2018-12-09T21:21:09.346Z,12.50
2018-12-09T21:23:36.932Z,9.93
2018-12-09T21:26:04.482Z,11.00
2018-12-09T21:28:32.235Z,11.27
2018-12-09T21:31:00.732Z,10.37
2018-12-09T21:33:28.202Z,9.53
2018-12-09T21:35:55.742Z,11.83
2018-12-09T21:38:23.970Z,9.90
2018-12-09T21:40:51.933Z,9.03
2018-12-09T21:43:19.554Z,11.57
2018-12-09T21:45:49.672Z,9.27
2018-12-09T21:48:17.265Z,9.80
2018-12-09T21:50:44.977Z,11.03
2018-12-09T21:53:13.484Z,11.00
2018-12-09T21:55:41.014Z,10.73
2018-12-09T21:58:08.754Z,9.60
2018-12-09T22:00:37.939Z,8.77
2018-12-09T22:03:05.830Z,8.63
2018-12-09T22:05:34.769Z,9.73
2018-12-09T22:08:02.481Z,9.47
2018-12-09T22:10:30.717Z,9.87
2018-12-09T22:12:58.308Z,11.30
2018-12-09T22:15:26.597Z,10.50
2018-12-09T22:17:54.676Z,7.83
2018-12-09T22:20:23.298Z,13.40
2018-12-09T22:22:50.903Z,8.53
2018-12-09T22:25:18.530Z,9.67
2018-12-09T22:27:46.081Z,9.37
2018-12-09T22:30:16.582Z,10.53
2018-12-09T22:32:44.108Z,9.40
2018-12-09T22:35:12.424Z,8.77
2018-12-09T22:37:40.524Z,12.60
2018-12-09T22:42:55.409Z,8.90
2018-12-09T22:45:23.949Z,10.00
2018-12-09T22:47:51.444Z,9.17
2018-12-09T22:50:18.993Z,8.67
2018-12-09T22:52:46.611Z,8.50
2018-12-09T22:55:14.550Z,8.53
2018-12-09T22:57:42.973Z,8.83
2018-12-09T23:00:18.383Z,10.07
2018-12-09T23:02:51.577Z,13.03
2018-12-09T23:05:22.712Z,5.83
2018-12-09T23:07:52.767Z,9.40
2018-12-09T23:10:21.130Z,7.50
2018-12-09T23:12:48.784Z,9.33
2018-12-09T23:15:16.427Z,9.53
2018-12-09T23:17:43.926Z,12.43
2018-12-09T23:20:13.261Z,7.97
2018-12-09T23:22:41.641Z,9.03
2018-12-09T23:25:09.265Z,11.27
2018-12-09T23:27:37.741Z,7.80
2018-12-09T23:30:06.624Z,7.10
2018-12-09T23:32:34.239Z,7.83
2018-12-09T23:35:02.394Z,7.07
2018-12-09T23:37:29.979Z,8.03
2018-12-09T23:39:58.201Z,10.77
2018-12-09T23:42:26.502Z,10.50
2018-12-09T23:44:53.999Z,13.80
2018-12-09T23:47:21.534Z,9.07
2018-12-09T23:49:49.034Z,11.37
2018-12-09T23:52:16.584Z,9.60
2018-12-09T23:54:44.140Z,11.07
2018-12-09T23:57:11.769Z,10.67
2018-12-09T23:59:39.244Z,8.80
